OIBL  Bandar Lengeh Airport

Add Bookmark

Bandar Lengeh, Iran

Status IATA
Operational BDH
Latitude Longitude
26° 31' 55" N 54° 49' 29" E
26.532000 54.824799
Local (DST + 5) UTC (GMT + 4)
Jul 29, 2014 07:16 Jul 29, 2014 14:46
Sunrise-Sunset Local UTC
Begin Civil Twilight 05:48 01:18
Sunrise 06:13 01:43
Sunset 07:41 15:11
End Civil Twilight 08:06 15:36

Current Weather

METAR Observed MVFR
OIBL 291400Z 24012KT 5000 HZ SKC 36/27 Q0993 Tue, Jul 29, 2014 @ 14:00 UTC
(46 Minutes ago)
Marginal Visual Flight Rules

Decoded METAR

Wind Visibility Clouds Conditions
240° at 12 knots (22 kph) 5000 meters
  • Clear skies
  • Haze
Temperatures Readings Precipitation
Current Temp 36°C (97°F)
Dewpoint 27°C (81°F)
Heat Index 48°C (119°F)
Humidity 60%
Altimeter 29.32"Hg
Sea Level Pressure 993mb
Field Elevation 45.93'
None Recorded

Additional weather within a 92.6km radius of OIBL

Map ICAO Location
OIBS 74.8km S (202°)
OIBA 75.7km S (164°)
OIBK 83.9km W (270°)

24 Hour Weather History

Loading
-

24 Hour Weather Graphs

Loading
-

CheckWX.com is intended as a tool to help pilots better visualize weather data. It is not intended as a substitute for an official weather briefing obtained from a Flight Service Station. CheckWX.com does not meet the FAA requirements for an official pre-flight weather briefing. Therefore, it's important that pilots still call and obtain an official FSS pre-flight weather briefing.